Terminal Aerodrome Forecast
Issued by NWS

Home | Current Version | Previous Version | Text Only | Print | Product List | Glossary On
Versions: 1 2 3 4 5 6 7 8 9 10 11 12 13 14 15
000
FTUS46 KPDT 011120
TAFDLS
TAF
KDLS 011120Z 0112/0212 27006KT P6SM SKC
     FM011500 29005KT P6SM VCSH SCT050 BKN080
     FM012000 31011KT P6SM SCT070 SCT120
     FM020300 29005KT P6SM SCT080 BKN100=

USA.gov is the U.S. government's official web portal to all federal, state and local government web resources and services.